sensor_id;sensor_type;location;lat;lon;timestamp;P1;durP1;ratioP1;P2;durP2;ratioP2
82628;SDS011;72298;49.640;20.652;2023-08-24T00:00:56;37.65;;;21.45;;
82628;SDS011;72298;49.640;20.652;2023-08-24T00:03:21;39.97;;;22.45;;
82628;SDS011;72298;49.640;20.652;2023-08-24T00:05:48;43.35;;;24.50;;
82628;SDS011;72298;49.640;20.652;2023-08-24T00:08:14;34.03;;;22.65;;
82628;SDS011;72298;49.640;20.652;2023-08-24T00:10:42;35.70;;;20.33;;
82628;SDS011;72298;49.640;20.652;2023-08-24T00:13:09;37.67;;;22.05;;
82628;SDS011;72298;49.640;20.652;2023-08-24T00:15:34;38.25;;;21.40;;
82628;SDS011;72298;49.640;20.652;2023-08-24T00:18:01;42.65;;;23.15;;
82628;SDS011;72298;49.640;20.652;2023-08-24T00:20:27;43.53;;;25.27;;
82628;SDS011;72298;49.640;20.652;2023-08-24T00:22:52;46.13;;;25.58;;
82628;SDS011;72298;49.640;20.652;2023-08-24T00:25:18;46.33;;;24.45;;
82628;SDS011;72298;49.640;20.652;2023-08-24T00:27:44;42.30;;;23.75;;
82628;SDS011;72298;49.640;20.652;2023-08-24T00:30:10;42.25;;;24.75;;
82628;SDS011;72298;49.640;20.652;2023-08-24T00:32:36;37.58;;;23.42;;
82628;SDS011;72298;49.640;20.652;2023-08-24T00:35:05;42.53;;;24.20;;
82628;SDS011;72298;49.640;20.652;2023-08-24T00:37:32;39.67;;;22.55;;
82628;SDS011;72298;49.640;20.652;2023-08-24T00:40:01;39.33;;;23.45;;
82628;SDS011;72298;49.640;20.652;2023-08-24T00:42:37;35.25;;;19.80;;
82628;SDS011;72298;49.640;20.652;2023-08-24T00:45:07;31.58;;;19.48;;
82628;SDS011;72298;49.640;20.652;2023-08-24T00:47:34;34.90;;;18.48;;
82628;SDS011;72298;49.640;20.652;2023-08-24T00:52:27;29.13;;;17.60;;
82628;SDS011;72298;49.640;20.652;2023-08-24T00:54:54;32.55;;;17.33;;
82628;SDS011;72298;49.640;20.652;2023-08-24T00:57:20;26.13;;;16.33;;
82628;SDS011;72298;49.640;20.652;2023-08-24T00:59:47;33.15;;;17.63;;
82628;SDS011;72298;49.640;20.652;2023-08-24T01:02:13;28.45;;;16.83;;
82628;SDS011;72298;49.640;20.652;2023-08-24T01:04:40;30.33;;;18.52;;
82628;SDS011;72298;49.640;20.652;2023-08-24T01:07:06;30.25;;;18.60;;
82628;SDS011;72298;49.640;20.652;2023-08-24T01:09:33;33.05;;;19.33;;
82628;SDS011;72298;49.640;20.652;2023-08-24T01:17:24;31.40;;;17.40;;
82628;SDS011;72298;49.640;20.652;2023-08-24T01:19:52;37.13;;;19.33;;
82628;SDS011;72298;49.640;20.652;2023-08-24T01:27:35;35.30;;;20.27;;
82628;SDS011;72298;49.640;20.652;2023-08-24T01:30:02;32.60;;;19.90;;
82628;SDS011;72298;49.640;20.652;2023-08-24T01:32:32;37.58;;;21.35;;
82628;SDS011;72298;49.640;20.652;2023-08-24T01:35:02;40.83;;;22.67;;
82628;SDS011;72298;49.640;20.652;2023-08-24T01:37:29;33.38;;;20.27;;
82628;SDS011;72298;49.640;20.652;2023-08-24T01:40:03;34.30;;;19.73;;
82628;SDS011;72298;49.640;20.652;2023-08-24T01:42:35;32.08;;;19.35;;
82628;SDS011;72298;49.640;20.652;2023-08-24T01:45:03;29.92;;;18.92;;
82628;SDS011;72298;49.640;20.652;2023-08-24T01:47:31;31.83;;;20.33;;
82628;SDS011;72298;49.640;20.652;2023-08-24T01:49:57;33.15;;;19.15;;
82628;SDS011;72298;49.640;20.652;2023-08-24T01:52:23;36.63;;;18.38;;
82628;SDS011;72298;49.640;20.652;2023-08-24T01:54:49;30.45;;;19.77;;
82628;SDS011;72298;49.640;20.652;2023-08-24T01:57:15;35.17;;;18.27;;
82628;SDS011;72298;49.640;20.652;2023-08-24T01:59:41;24.92;;;16.17;;
82628;SDS011;72298;49.640;20.652;2023-08-24T02:02:06;27.00;;;17.55;;
82628;SDS011;72298;49.640;20.652;2023-08-24T02:04:32;27.60;;;18.23;;
82628;SDS011;72298;49.640;20.652;2023-08-24T02:06:58;31.88;;;18.05;;
82628;SDS011;72298;49.640;20.652;2023-08-24T02:09:23;34.45;;;18.05;;
82628;SDS011;72298;49.640;20.652;2023-08-24T02:11:49;27.90;;;17.58;;
82628;SDS011;72298;49.640;20.652;2023-08-24T02:14:15;34.53;;;17.73;;
82628;SDS011;72298;49.640;20.652;2023-08-24T02:16:40;31.10;;;17.52;;
82628;SDS011;72298;49.640;20.652;2023-08-24T02:19:06;27.92;;;17.40;;
82628;SDS011;72298;49.640;20.652;2023-08-24T02:21:31;29.08;;;17.15;;
82628;SDS011;72298;49.640;20.652;2023-08-24T02:23:57;30.63;;;17.20;;
82628;SDS011;72298;49.640;20.652;2023-08-24T02:26:22;26.13;;;16.27;;
82628;SDS011;72298;49.640;20.652;2023-08-24T02:28:48;30.20;;;17.38;;
82628;SDS011;72298;49.640;20.652;2023-08-24T02:31:13;31.90;;;18.15;;
82628;SDS011;72298;49.640;20.652;2023-08-24T02:33:39;27.42;;;17.20;;
82628;SDS011;72298;49.640;20.652;2023-08-24T02:36:04;30.52;;;19.10;;
82628;SDS011;72298;49.640;20.652;2023-08-24T02:38:30;34.13;;;17.83;;
82628;SDS011;72298;49.640;20.652;2023-08-24T02:41:05;32.85;;;18.88;;
82628;SDS011;72298;49.640;20.652;2023-08-24T02:43:32;39.53;;;20.77;;
82628;SDS011;72298;49.640;20.652;2023-08-24T02:46:05;45.72;;;23.13;;
82628;SDS011;72298;49.640;20.652;2023-08-24T02:48:32;83.13;;;26.30;;
82628;SDS011;72298;49.640;20.652;2023-08-24T02:50:58;52.72;;;25.58;;
82628;SDS011;72298;49.640;20.652;2023-08-24T02:53:25;97.18;;;25.98;;
82628;SDS011;72298;49.640;20.652;2023-08-24T02:55:51;39.47;;;21.38;;
82628;SDS011;72298;49.640;20.652;2023-08-24T02:58:16;49.42;;;23.33;;
82628;SDS011;72298;49.640;20.652;2023-08-24T03:00:42;47.92;;;21.73;;
82628;SDS011;72298;49.640;20.652;2023-08-24T03:03:07;100.32;;;26.83;;
82628;SDS011;72298;49.640;20.652;2023-08-24T03:05:33;49.42;;;22.50;;
82628;SDS011;72298;49.640;20.652;2023-08-24T03:07:59;171.48;;;28.77;;
82628;SDS011;72298;49.640;20.652;2023-08-24T03:10:24;152.43;;;24.73;;
82628;SDS011;72298;49.640;20.652;2023-08-24T03:12:50;67.25;;;22.50;;
82628;SDS011;72298;49.640;20.652;2023-08-24T03:15:16;57.97;;;20.67;;
82628;SDS011;72298;49.640;20.652;2023-08-24T03:17:42;46.25;;;20.48;;
82628;SDS011;72298;49.640;20.652;2023-08-24T03:20:08;52.30;;;22.08;;
82628;SDS011;72298;49.640;20.652;2023-08-24T03:22:34;40.65;;;19.85;;
82628;SDS011;72298;49.640;20.652;2023-08-24T03:25:00;34.08;;;19.10;;
82628;SDS011;72298;49.640;20.652;2023-08-24T03:27:25;28.77;;;17.75;;
82628;SDS011;72298;49.640;20.652;2023-08-24T03:29:54;29.48;;;18.38;;
82628;SDS011;72298;49.640;20.652;2023-08-24T03:32:19;28.10;;;18.05;;
82628;SDS011;72298;49.640;20.652;2023-08-24T03:34:45;29.98;;;17.92;;
82628;SDS011;72298;49.640;20.652;2023-08-24T03:37:10;27.77;;;18.40;;
82628;SDS011;72298;49.640;20.652;2023-08-24T03:39:39;26.23;;;17.77;;
82628;SDS011;72298;49.640;20.652;2023-08-24T03:42:06;101.60;;;21.48;;
82628;SDS011;72298;49.640;20.652;2023-08-24T03:44:31;130.20;;;23.75;;
82628;SDS011;72298;49.640;20.652;2023-08-24T03:46:57;147.55;;;27.77;;
82628;SDS011;72298;49.640;20.652;2023-08-24T03:49:23;44.13;;;20.77;;
82628;SDS011;72298;49.640;20.652;2023-08-24T03:51:48;39.78;;;20.40;;
82628;SDS011;72298;49.640;20.652;2023-08-24T03:54:14;51.95;;;21.83;;
82628;SDS011;72298;49.640;20.652;2023-08-24T03:56:39;43.22;;;20.40;;
82628;SDS011;72298;49.640;20.652;2023-08-24T03:59:05;103.95;;;25.75;;
82628;SDS011;72298;49.640;20.652;2023-08-24T04:01:31;42.95;;;20.77;;
82628;SDS011;72298;49.640;20.652;2023-08-24T04:03:56;32.13;;;19.35;;
82628;SDS011;72298;49.640;20.652;2023-08-24T04:06:22;27.73;;;19.17;;
82628;SDS011;72298;49.640;20.652;2023-08-24T04:08:49;31.65;;;19.67;;
82628;SDS011;72298;49.640;20.652;2023-08-24T04:11:14;33.95;;;20.23;;
82628;SDS011;72298;49.640;20.652;2023-08-24T04:13:40;33.40;;;19.45;;
82628;SDS011;72298;49.640;20.652;2023-08-24T04:16:06;36.35;;;19.73;;
82628;SDS011;72298;49.640;20.652;2023-08-24T04:18:31;41.22;;;20.20;;
82628;SDS011;72298;49.640;20.652;2023-08-24T04:20:57;33.28;;;19.40;;
82628;SDS011;72298;49.640;20.652;2023-08-24T04:23:23;32.75;;;19.17;;
82628;SDS011;72298;49.640;20.652;2023-08-24T04:25:50;92.88;;;23.67;;
82628;SDS011;72298;49.640;20.652;2023-08-24T04:28:16;47.90;;;19.90;;
82628;SDS011;72298;49.640;20.652;2023-08-24T04:30:48;38.65;;;21.00;;
82628;SDS011;72298;49.640;20.652;2023-08-24T04:33:15;47.78;;;23.70;;
82628;SDS011;72298;49.640;20.652;2023-08-24T04:35:40;41.15;;;22.10;;
82628;SDS011;72298;49.640;20.652;2023-08-24T04:38:06;157.75;;;26.40;;
82628;SDS011;72298;49.640;20.652;2023-08-24T04:40:44;44.67;;;21.15;;
82628;SDS011;72298;49.640;20.652;2023-08-24T04:43:11;45.17;;;20.58;;
82628;SDS011;72298;49.640;20.652;2023-08-24T04:45:37;38.53;;;19.77;;
82628;SDS011;72298;49.640;20.652;2023-08-24T04:48:02;45.92;;;21.60;;
82628;SDS011;72298;49.640;20.652;2023-08-24T04:50:28;127.18;;;26.77;;
82628;SDS011;72298;49.640;20.652;2023-08-24T04:52:54;88.70;;;25.30;;
82628;SDS011;72298;49.640;20.652;2023-08-24T04:55:20;45.63;;;22.40;;
82628;SDS011;72298;49.640;20.652;2023-08-24T04:57:45;37.33;;;20.27;;
82628;SDS011;72298;49.640;20.652;2023-08-24T05:00:11;44.38;;;22.15;;
82628;SDS011;72298;49.640;20.652;2023-08-24T05:02:41;84.65;;;23.88;;
82628;SDS011;72298;49.640;20.652;2023-08-24T05:05:07;75.82;;;24.77;;
82628;SDS011;72298;49.640;20.652;2023-08-24T05:07:36;42.13;;;21.15;;
82628;SDS011;72298;49.640;20.652;2023-08-24T05:10:03;143.63;;;24.55;;
82628;SDS011;72298;49.640;20.652;2023-08-24T05:12:29;109.50;;;26.77;;
82628;SDS011;72298;49.640;20.652;2023-08-24T05:14:55;220.25;;;31.98;;
82628;SDS011;72298;49.640;20.652;2023-08-24T05:17:21;46.33;;;23.80;;
82628;SDS011;72298;49.640;20.652;2023-08-24T05:19:56;178.13;;;30.30;;
82628;SDS011;72298;49.640;20.652;2023-08-24T05:22:21;296.63;;;30.42;;
82628;SDS011;72298;49.640;20.652;2023-08-24T05:24:47;248.88;;;34.13;;
82628;SDS011;72298;49.640;20.652;2023-08-24T05:27:13;38.63;;;21.20;;
82628;SDS011;72298;49.640;20.652;2023-08-24T05:29:38;109.75;;;26.02;;
82628;SDS011;72298;49.640;20.652;2023-08-24T05:32:04;98.10;;;23.95;;
82628;SDS011;72298;49.640;20.652;2023-08-24T05:34:30;165.52;;;27.42;;
82628;SDS011;72298;49.640;20.652;2023-08-24T05:36:55;100.72;;;23.92;;
82628;SDS011;72298;49.640;20.652;2023-08-24T05:39:21;190.32;;;31.83;;
82628;SDS011;72298;49.640;20.652;2023-08-24T05:41:50;62.25;;;21.30;;
82628;SDS011;72298;49.640;20.652;2023-08-24T05:44:16;45.40;;;21.02;;
82628;SDS011;72298;49.640;20.652;2023-08-24T05:46:42;76.50;;;22.77;;
82628;SDS011;72298;49.640;20.652;2023-08-24T05:49:08;36.33;;;19.15;;
82628;SDS011;72298;49.640;20.652;2023-08-24T05:51:33;34.05;;;18.02;;
82628;SDS011;72298;49.640;20.652;2023-08-24T05:53:59;25.92;;;16.25;;
82628;SDS011;72298;49.640;20.652;2023-08-24T05:56:26;24.83;;;16.30;;
82628;SDS011;72298;49.640;20.652;2023-08-24T05:58:51;56.15;;;19.50;;
82628;SDS011;72298;49.640;20.652;2023-08-24T06:01:17;37.47;;;19.00;;
82628;SDS011;72298;49.640;20.652;2023-08-24T06:03:46;35.60;;;18.40;;
82628;SDS011;72298;49.640;20.652;2023-08-24T06:06:12;25.55;;;16.42;;
82628;SDS011;72298;49.640;20.652;2023-08-24T06:08:39;33.55;;;17.67;;
82628;SDS011;72298;49.640;20.652;2023-08-24T06:11:10;28.83;;;17.98;;
82628;SDS011;72298;49.640;20.652;2023-08-24T06:13:40;67.35;;;22.15;;
82628;SDS011;72298;49.640;20.652;2023-08-24T06:16:05;32.28;;;18.17;;
82628;SDS011;72298;49.640;20.652;2023-08-24T06:18:31;34.97;;;19.73;;
82628;SDS011;72298;49.640;20.652;2023-08-24T06:20:57;28.48;;;18.20;;
82628;SDS011;72298;49.640;20.652;2023-08-24T06:23:23;30.70;;;17.90;;
82628;SDS011;72298;49.640;20.652;2023-08-24T06:25:55;27.10;;;17.40;;
82628;SDS011;72298;49.640;20.652;2023-08-24T06:28:22;33.03;;;19.67;;
82628;SDS011;72298;49.640;20.652;2023-08-24T06:30:50;32.83;;;19.17;;
82628;SDS011;72298;49.640;20.652;2023-08-24T06:33:16;34.83;;;19.77;;
82628;SDS011;72298;49.640;20.652;2023-08-24T06:35:44;36.83;;;20.45;;
82628;SDS011;72298;49.640;20.652;2023-08-24T06:38:12;33.60;;;18.33;;
82628;SDS011;72298;49.640;20.652;2023-08-24T06:40:59;34.28;;;20.13;;
82628;SDS011;72298;49.640;20.652;2023-08-24T06:43:25;53.88;;;24.92;;
82628;SDS011;72298;49.640;20.652;2023-08-24T06:45:51;32.90;;;19.08;;
82628;SDS011;72298;49.640;20.652;2023-08-24T06:48:16;30.85;;;19.30;;
82628;SDS011;72298;49.640;20.652;2023-08-24T06:50:43;28.65;;;17.50;;
82628;SDS011;72298;49.640;20.652;2023-08-24T06:53:08;28.40;;;18.60;;
82628;SDS011;72298;49.640;20.652;2023-08-24T06:55:34;33.85;;;18.60;;
82628;SDS011;72298;49.640;20.652;2023-08-24T06:58:01;30.52;;;18.02;;
82628;SDS011;72298;49.640;20.652;2023-08-24T07:00:30;31.50;;;17.77;;
82628;SDS011;72298;49.640;20.652;2023-08-24T07:02:56;31.40;;;18.40;;
82628;SDS011;72298;49.640;20.652;2023-08-24T07:05:22;39.42;;;21.17;;
82628;SDS011;72298;49.640;20.652;2023-08-24T07:07:49;38.97;;;20.80;;
82628;SDS011;72298;49.640;20.652;2023-08-24T07:10:15;33.30;;;19.55;;
82628;SDS011;72298;49.640;20.652;2023-08-24T07:12:41;29.98;;;18.55;;
82628;SDS011;72298;49.640;20.652;2023-08-24T07:15:07;41.97;;;20.48;;
82628;SDS011;72298;49.640;20.652;2023-08-24T07:17:33;34.03;;;19.58;;
82628;SDS011;72298;49.640;20.652;2023-08-24T07:19:59;34.40;;;20.98;;
82628;SDS011;72298;49.640;20.652;2023-08-24T07:22:25;32.17;;;20.13;;
82628;SDS011;72298;49.640;20.652;2023-08-24T07:24:53;34.65;;;17.88;;
82628;SDS011;72298;49.640;20.652;2023-08-24T07:27:19;40.08;;;21.45;;
82628;SDS011;72298;49.640;20.652;2023-08-24T07:29:45;32.35;;;19.92;;
82628;SDS011;72298;49.640;20.652;2023-08-24T07:32:11;33.33;;;19.90;;
82628;SDS011;72298;49.640;20.652;2023-08-24T07:34:36;28.02;;;17.58;;
82628;SDS011;72298;49.640;20.652;2023-08-24T07:37:02;34.63;;;19.80;;
82628;SDS011;72298;49.640;20.652;2023-08-24T07:39:28;30.38;;;18.30;;
82628;SDS011;72298;49.640;20.652;2023-08-24T07:41:54;33.55;;;19.20;;
82628;SDS011;72298;49.640;20.652;2023-08-24T07:44:19;31.73;;;18.35;;
82628;SDS011;72298;49.640;20.652;2023-08-24T07:46:47;28.70;;;16.77;;
82628;SDS011;72298;49.640;20.652;2023-08-24T07:49:13;26.20;;;16.17;;
82628;SDS011;72298;49.640;20.652;2023-08-24T07:51:38;22.67;;;15.10;;
82628;SDS011;72298;49.640;20.652;2023-08-24T07:54:04;24.45;;;16.05;;
82628;SDS011;72298;49.640;20.652;2023-08-24T07:56:31;25.90;;;16.73;;
82628;SDS011;72298;49.640;20.652;2023-08-24T07:58:57;21.42;;;15.05;;
82628;SDS011;72298;49.640;20.652;2023-08-24T08:01:23;27.02;;;16.30;;
82628;SDS011;72298;49.640;20.652;2023-08-24T08:03:49;28.17;;;16.20;;
82628;SDS011;72298;49.640;20.652;2023-08-24T08:06:15;29.63;;;18.15;;
82628;SDS011;72298;49.640;20.652;2023-08-24T08:08:40;24.58;;;14.77;;
82628;SDS011;72298;49.640;20.652;2023-08-24T08:11:06;18.67;;;13.23;;
82628;SDS011;72298;49.640;20.652;2023-08-24T08:13:31;22.38;;;13.85;;
82628;SDS011;72298;49.640;20.652;2023-08-24T08:16:00;23.73;;;15.23;;
82628;SDS011;72298;49.640;20.652;2023-08-24T08:18:29;22.98;;;13.75;;
82628;SDS011;72298;49.640;20.652;2023-08-24T08:20:56;20.40;;;13.00;;
82628;SDS011;72298;49.640;20.652;2023-08-24T08:23:22;22.48;;;14.40;;
82628;SDS011;72298;49.640;20.652;2023-08-24T08:25:47;20.90;;;13.85;;
82628;SDS011;72298;49.640;20.652;2023-08-24T08:28:13;22.42;;;13.73;;
82628;SDS011;72298;49.640;20.652;2023-08-24T08:30:39;20.60;;;14.50;;
82628;SDS011;72298;49.640;20.652;2023-08-24T08:33:04;21.48;;;14.02;;
82628;SDS011;72298;49.640;20.652;2023-08-24T08:35:30;27.45;;;14.90;;
82628;SDS011;72298;49.640;20.652;2023-08-24T08:37:55;24.40;;;14.23;;
82628;SDS011;72298;49.640;20.652;2023-08-24T08:40:21;23.75;;;14.15;;
82628;SDS011;72298;49.640;20.652;2023-08-24T08:42:46;26.40;;;14.00;;
82628;SDS011;72298;49.640;20.652;2023-08-24T08:45:12;21.65;;;14.32;;
82628;SDS011;72298;49.640;20.652;2023-08-24T08:47:38;19.63;;;14.18;;
82628;SDS011;72298;49.640;20.652;2023-08-24T08:50:06;17.10;;;13.20;;
82628;SDS011;72298;49.640;20.652;2023-08-24T08:52:32;19.48;;;11.90;;
82628;SDS011;72298;49.640;20.652;2023-08-24T08:54:59;18.23;;;12.32;;
82628;SDS011;72298;49.640;20.652;2023-08-24T08:57:31;18.77;;;10.77;;
82628;SDS011;72298;49.640;20.652;2023-08-24T08:59:57;16.80;;;11.05;;
82628;SDS011;72298;49.640;20.652;2023-08-24T09:02:22;18.20;;;11.00;;
82628;SDS011;72298;49.640;20.652;2023-08-24T09:04:49;15.10;;;9.95;;
82628;SDS011;72298;49.640;20.652;2023-08-24T09:07:16;16.88;;;10.40;;
82628;SDS011;72298;49.640;20.652;2023-08-24T09:09:42;16.45;;;10.50;;
82628;SDS011;72298;49.640;20.652;2023-08-24T09:12:08;16.73;;;10.48;;
82628;SDS011;72298;49.640;20.652;2023-08-24T09:14:34;18.30;;;10.75;;
82628;SDS011;72298;49.640;20.652;2023-08-24T09:17:00;14.45;;;9.27;;
82628;SDS011;72298;49.640;20.652;2023-08-24T09:19:29;16.00;;;10.25;;
82628;SDS011;72298;49.640;20.652;2023-08-24T09:21:59;15.35;;;10.32;;
82628;SDS011;72298;49.640;20.652;2023-08-24T09:24:30;20.05;;;10.38;;
82628;SDS011;72298;49.640;20.652;2023-08-24T09:26:57;14.88;;;10.32;;
82628;SDS011;72298;49.640;20.652;2023-08-24T09:29:22;14.27;;;9.85;;
82628;SDS011;72298;49.640;20.652;2023-08-24T09:31:50;11.82;;;9.35;;
82628;SDS011;72298;49.640;20.652;2023-08-24T09:34:18;14.32;;;9.80;;
82628;SDS011;72298;49.640;20.652;2023-08-24T09:36:45;16.33;;;10.45;;
82628;SDS011;72298;49.640;20.652;2023-08-24T09:39:11;12.70;;;9.70;;
82628;SDS011;72298;49.640;20.652;2023-08-24T09:41:43;14.65;;;9.02;;
82628;SDS011;72298;49.640;20.652;2023-08-24T09:44:10;14.18;;;8.80;;
82628;SDS011;72298;49.640;20.652;2023-08-24T09:46:37;13.15;;;9.10;;
82628;SDS011;72298;49.640;20.652;2023-08-24T09:49:07;12.30;;;9.48;;
82628;SDS011;72298;49.640;20.652;2023-08-24T09:51:34;13.43;;;9.57;;
82628;SDS011;72298;49.640;20.652;2023-08-24T09:56:28;12.20;;;8.55;;
82628;SDS011;72298;49.640;20.652;2023-08-24T09:58:54;13.23;;;9.20;;
82628;SDS011;72298;49.640;20.652;2023-08-24T10:01:20;11.75;;;8.50;;
82628;SDS011;72298;49.640;20.652;2023-08-24T10:03:47;12.45;;;9.20;;
82628;SDS011;72298;49.640;20.652;2023-08-24T10:06:16;15.75;;;9.13;;
82628;SDS011;72298;49.640;20.652;2023-08-24T10:08:47;11.40;;;8.52;;
82628;SDS011;72298;49.640;20.652;2023-08-24T10:11:17;13.05;;;9.35;;
82628;SDS011;72298;49.640;20.652;2023-08-24T10:16:15;17.83;;;8.45;;
82628;SDS011;72298;49.640;20.652;2023-08-24T10:18:41;13.73;;;8.07;;
82628;SDS011;72298;49.640;20.652;2023-08-24T10:21:08;11.18;;;7.82;;
82628;SDS011;72298;49.640;20.652;2023-08-24T10:23:35;14.70;;;8.13;;
82628;SDS011;72298;49.640;20.652;2023-08-24T10:30:57;10.13;;;7.30;;
82628;SDS011;72298;49.640;20.652;2023-08-24T10:33:23;12.27;;;7.43;;
82628;SDS011;72298;49.640;20.652;2023-08-24T10:35:49;8.93;;;7.25;;
82628;SDS011;72298;49.640;20.652;2023-08-24T10:38:28;11.10;;;6.90;;
82628;SDS011;72298;49.640;20.652;2023-08-24T10:40:54;11.20;;;7.57;;
82628;SDS011;72298;49.640;20.652;2023-08-24T10:43:27;9.68;;;6.65;;
82628;SDS011;72298;49.640;20.652;2023-08-24T10:48:23;11.98;;;6.97;;
82628;SDS011;72298;49.640;20.652;2023-08-24T10:56:23;10.52;;;6.57;;
82628;SDS011;72298;49.640;20.652;2023-08-24T10:59:12;8.95;;;6.93;;
82628;SDS011;72298;49.640;20.652;2023-08-24T11:04:18;14.63;;;6.97;;
82628;SDS011;72298;49.640;20.652;2023-08-24T11:06:54;10.48;;;6.88;;
82628;SDS011;72298;49.640;20.652;2023-08-24T11:09:21;10.90;;;6.90;;
82628;SDS011;72298;49.640;20.652;2023-08-24T11:11:57;9.32;;;6.18;;
82628;SDS011;72298;49.640;20.652;2023-08-24T11:14:27;10.10;;;6.68;;
82628;SDS011;72298;49.640;20.652;2023-08-24T11:17:00;11.27;;;7.00;;
82628;SDS011;72298;49.640;20.652;2023-08-24T11:19:27;9.90;;;6.50;;
82628;SDS011;72298;49.640;20.652;2023-08-24T11:21:53;12.93;;;7.22;;
82628;SDS011;72298;49.640;20.652;2023-08-24T11:24:19;10.38;;;7.13;;
82628;SDS011;72298;49.640;20.652;2023-08-24T11:26:45;11.65;;;6.20;;
82628;SDS011;72298;49.640;20.652;2023-08-24T11:29:12;9.27;;;6.28;;
82628;SDS011;72298;49.640;20.652;2023-08-24T11:31:38;8.85;;;6.15;;
82628;SDS011;72298;49.640;20.652;2023-08-24T11:34:04;9.48;;;6.20;;
82628;SDS011;72298;49.640;20.652;2023-08-24T11:36:40;9.98;;;7.13;;
82628;SDS011;72298;49.640;20.652;2023-08-24T11:39:17;10.63;;;6.50;;
82628;SDS011;72298;49.640;20.652;2023-08-24T11:41:46;11.00;;;6.78;;
82628;SDS011;72298;49.640;20.652;2023-08-24T11:44:24;9.98;;;6.05;;
82628;SDS011;72298;49.640;20.652;2023-08-24T11:46:50;8.70;;;6.20;;
82628;SDS011;72298;49.640;20.652;2023-08-24T11:49:15;8.57;;;6.30;;
82628;SDS011;72298;49.640;20.652;2023-08-24T11:51:41;11.25;;;5.57;;
82628;SDS011;72298;49.640;20.652;2023-08-24T11:54:07;9.20;;;6.30;;
82628;SDS011;72298;49.640;20.652;2023-08-24T11:56:39;8.27;;;6.53;;
82628;SDS011;72298;49.640;20.652;2023-08-24T11:59:10;8.77;;;5.90;;
82628;SDS011;72298;49.640;20.652;2023-08-24T12:01:37;10.30;;;6.95;;
82628;SDS011;72298;49.640;20.652;2023-08-24T12:04:05;11.70;;;7.35;;
82628;SDS011;72298;49.640;20.652;2023-08-24T12:06:31;8.68;;;5.40;;
82628;SDS011;72298;49.640;20.652;2023-08-24T12:08:57;8.60;;;5.65;;
82628;SDS011;72298;49.640;20.652;2023-08-24T12:11:22;8.45;;;5.35;;
82628;SDS011;72298;49.640;20.652;2023-08-24T12:13:51;6.88;;;5.28;;
82628;SDS011;72298;49.640;20.652;2023-08-24T12:16:20;7.38;;;4.85;;
82628;SDS011;72298;49.640;20.652;2023-08-24T12:18:49;6.70;;;4.90;;
82628;SDS011;72298;49.640;20.652;2023-08-24T12:21:22;8.82;;;5.32;;
82628;SDS011;72298;49.640;20.652;2023-08-24T12:26:21;8.35;;;5.38;;
82628;SDS011;72298;49.640;20.652;2023-08-24T12:28:50;6.55;;;4.90;;
82628;SDS011;72298;49.640;20.652;2023-08-24T12:31:17;10.20;;;5.05;;
82628;SDS011;72298;49.640;20.652;2023-08-24T12:33:43;7.97;;;4.90;;
82628;SDS011;72298;49.640;20.652;2023-08-24T12:36:10;5.60;;;4.70;;
82628;SDS011;72298;49.640;20.652;2023-08-24T12:38:35;7.32;;;5.03;;
82628;SDS011;72298;49.640;20.652;2023-08-24T12:41:01;7.35;;;4.50;;
82628;SDS011;72298;49.640;20.652;2023-08-24T12:43:27;8.60;;;4.45;;
82628;SDS011;72298;49.640;20.652;2023-08-24T12:45:52;5.50;;;4.18;;
82628;SDS011;72298;49.640;20.652;2023-08-24T12:48:18;6.85;;;4.50;;
82628;SDS011;72298;49.640;20.652;2023-08-24T12:50:44;6.15;;;4.45;;
82628;SDS011;72298;49.640;20.652;2023-08-24T12:53:09;10.85;;;4.53;;
82628;SDS011;72298;49.640;20.652;2023-08-24T12:55:36;7.60;;;4.38;;
82628;SDS011;72298;49.640;20.652;2023-08-24T12:58:04;7.72;;;4.55;;
82628;SDS011;72298;49.640;20.652;2023-08-24T13:00:30;6.65;;;4.13;;
82628;SDS011;72298;49.640;20.652;2023-08-24T13:02:56;8.02;;;4.20;;
82628;SDS011;72298;49.640;20.652;2023-08-24T13:05:22;9.20;;;4.82;;
82628;SDS011;72298;49.640;20.652;2023-08-24T13:07:48;6.60;;;4.53;;
82628;SDS011;72298;49.640;20.652;2023-08-24T13:10:14;7.03;;;4.47;;
82628;SDS011;72298;49.640;20.652;2023-08-24T13:12:40;5.70;;;3.53;;
82628;SDS011;72298;49.640;20.652;2023-08-24T13:15:07;10.85;;;4.55;;
82628;SDS011;72298;49.640;20.652;2023-08-24T13:17:33;6.70;;;4.60;;
82628;SDS011;72298;49.640;20.652;2023-08-24T13:19:58;5.70;;;3.63;;
82628;SDS011;72298;49.640;20.652;2023-08-24T13:22:24;8.45;;;4.35;;
82628;SDS011;72298;49.640;20.652;2023-08-24T13:24:50;6.63;;;4.10;;
82628;SDS011;72298;49.640;20.652;2023-08-24T13:27:15;6.28;;;4.57;;
82628;SDS011;72298;49.640;20.652;2023-08-24T13:29:41;10.13;;;3.95;;
82628;SDS011;72298;49.640;20.652;2023-08-24T13:32:07;6.70;;;3.75;;
82628;SDS011;72298;49.640;20.652;2023-08-24T13:34:32;26.35;;;5.18;;
82628;SDS011;72298;49.640;20.652;2023-08-24T13:36:58;7.07;;;3.90;;
82628;SDS011;72298;49.640;20.652;2023-08-24T13:39:27;5.95;;;3.60;;
82628;SDS011;72298;49.640;20.652;2023-08-24T13:41:57;8.30;;;3.85;;
82628;SDS011;72298;49.640;20.652;2023-08-24T13:44:26;6.00;;;3.55;;
82628;SDS011;72298;49.640;20.652;2023-08-24T13:46:52;4.75;;;3.70;;
82628;SDS011;72298;49.640;20.652;2023-08-24T13:49:20;7.50;;;4.53;;
82628;SDS011;72298;49.640;20.652;2023-08-24T13:51:46;6.68;;;3.63;;
82628;SDS011;72298;49.640;20.652;2023-08-24T13:54:16;5.75;;;3.78;;
82628;SDS011;72298;49.640;20.652;2023-08-24T13:56:43;4.97;;;3.42;;
82628;SDS011;72298;49.640;20.652;2023-08-24T14:01:34;5.63;;;3.58;;
82628;SDS011;72298;49.640;20.652;2023-08-24T14:04:00;4.70;;;3.60;;
82628;SDS011;72298;49.640;20.652;2023-08-24T14:06:31;5.68;;;3.83;;
82628;SDS011;72298;49.640;20.652;2023-08-24T14:08:58;6.72;;;3.80;;
82628;SDS011;72298;49.640;20.652;2023-08-24T14:11:24;7.65;;;3.65;;
82628;SDS011;72298;49.640;20.652;2023-08-24T14:13:49;7.25;;;3.83;;
82628;SDS011;72298;49.640;20.652;2023-08-24T14:16:16;5.20;;;3.72;;
82628;SDS011;72298;49.640;20.652;2023-08-24T14:18:42;8.60;;;3.70;;
82628;SDS011;72298;49.640;20.652;2023-08-24T14:21:08;5.68;;;3.45;;
82628;SDS011;72298;49.640;20.652;2023-08-24T14:23:35;6.15;;;4.03;;
82628;SDS011;72298;49.640;20.652;2023-08-24T14:26:01;5.97;;;3.53;;
82628;SDS011;72298;49.640;20.652;2023-08-24T14:28:48;7.00;;;4.50;;
82628;SDS011;72298;49.640;20.652;2023-08-24T14:31:18;7.07;;;4.18;;
82628;SDS011;72298;49.640;20.652;2023-08-24T14:33:44;7.93;;;3.53;;
82628;SDS011;72298;49.640;20.652;2023-08-24T14:36:10;10.95;;;5.18;;
82628;SDS011;72298;49.640;20.652;2023-08-24T14:38:38;12.48;;;4.15;;
82628;SDS011;72298;49.640;20.652;2023-08-24T14:41:05;6.43;;;3.75;;
82628;SDS011;72298;49.640;20.652;2023-08-24T14:43:32;6.70;;;3.58;;
82628;SDS011;72298;49.640;20.652;2023-08-24T14:45:58;7.00;;;3.90;;
82628;SDS011;72298;49.640;20.652;2023-08-24T14:48:25;6.70;;;3.75;;
82628;SDS011;72298;49.640;20.652;2023-08-24T14:50:50;5.30;;;3.28;;
82628;SDS011;72298;49.640;20.652;2023-08-24T14:53:16;5.80;;;3.92;;